createdAt,value
2023-08-16T00:03:35.399Z,7.78
2023-08-16T00:08:29.777Z,8.07
2023-08-16T00:13:24.270Z,7.40
2023-08-16T00:18:18.223Z,8.02
2023-08-16T00:23:12.742Z,7.60
2023-08-16T00:28:07.760Z,7.22
2023-08-16T00:33:00.674Z,7.43
2023-08-16T00:37:54.439Z,7.22
2023-08-16T00:42:47.972Z,7.65
2023-08-16T00:47:42.233Z,7.30
2023-08-16T00:52:36.171Z,7.78
2023-08-16T00:57:31.465Z,8.95
2023-08-16T01:02:25.920Z,8.82
2023-08-16T01:07:19.545Z,9.27
2023-08-16T01:12:38.512Z,9.40
2023-08-16T01:17:32.524Z,8.13
2023-08-16T01:22:56.451Z,8.10
2023-08-16T01:27:53.460Z,8.30
2023-08-16T01:32:47.873Z,7.75
2023-08-16T01:37:41.903Z,7.40
2023-08-16T01:42:45.906Z,8.10
2023-08-16T01:47:40.099Z,7.70
2023-08-16T01:52:33.888Z,7.50
2023-08-16T01:57:27.552Z,8.05
2023-08-16T02:02:21.678Z,8.45
2023-08-16T02:07:15.391Z,7.85
2023-08-16T02:12:10.834Z,9.18
2023-08-16T02:17:04.793Z,11.23
2023-08-16T02:22:02.303Z,10.35
2023-08-16T02:26:56.416Z,11.27
2023-08-16T02:31:50.243Z,9.90
2023-08-16T02:36:43.647Z,8.70
2023-08-16T02:41:37.729Z,8.60
2023-08-16T02:46:33.678Z,8.73
2023-08-16T02:51:27.018Z,9.00
2023-08-16T02:56:21.266Z,10.70
2023-08-16T03:01:16.504Z,10.30
2023-08-16T03:06:11.448Z,11.38
2023-08-16T03:11:05.114Z,9.85
2023-08-16T03:15:58.916Z,9.32
2023-08-16T03:20:54.479Z,9.32
2023-08-16T03:25:47.987Z,8.95
2023-08-16T03:30:42.118Z,9.73
2023-08-16T03:35:39.291Z,10.20
2023-08-16T03:40:33.068Z,10.32
2023-08-16T03:45:28.497Z,10.15
2023-08-16T03:50:22.465Z,9.13
2023-08-16T03:55:16.181Z,8.85
2023-08-16T04:00:15.611Z,8.50
2023-08-16T04:05:10.994Z,7.53
2023-08-16T04:10:06.933Z,8.52
2023-08-16T04:15:02.700Z,8.10
2023-08-16T04:19:57.118Z,8.40
2023-08-16T04:24:51.203Z,8.48
2023-08-16T04:29:44.399Z,8.60
2023-08-16T04:34:38.648Z,8.55
2023-08-16T04:39:32.317Z,8.55
2023-08-16T04:44:26.174Z,8.20
2023-08-16T04:49:21.647Z,8.30
2023-08-16T04:54:16.071Z,8.15
2023-08-16T04:59:10.535Z,7.97
2023-08-16T05:04:05.747Z,8.13
2023-08-16T05:08:59.816Z,7.30
2023-08-16T05:13:54.458Z,8.90
2023-08-16T05:18:47.956Z,7.70
2023-08-16T05:23:43.175Z,8.30
2023-08-16T05:28:37.769Z,7.60
2023-08-16T05:33:32.207Z,7.55
2023-08-16T05:38:27.299Z,7.63
2023-08-16T05:43:22.922Z,8.07
2023-08-16T05:48:16.141Z,8.02
2023-08-16T05:53:11.536Z,7.15
2023-08-16T05:58:06.879Z,7.25
2023-08-16T06:03:02.322Z,7.15
2023-08-16T06:07:56.613Z,7.13
2023-08-16T06:12:52.753Z,6.95
2023-08-16T06:17:46.792Z,7.25
2023-08-16T06:22:41.413Z,7.30
2023-08-16T06:27:36.173Z,6.60
2023-08-16T06:32:31.830Z,6.28
2023-08-16T06:37:26.870Z,6.03
2023-08-16T06:42:22.215Z,6.38
2023-08-16T06:47:16.616Z,6.28
2023-08-16T06:52:10.789Z,5.68
2023-08-16T06:57:05.342Z,6.00
2023-08-16T07:02:00.596Z,5.60
2023-08-16T07:06:54.226Z,5.50
2023-08-16T07:11:54.459Z,5.95
2023-08-16T07:16:48.540Z,6.68
2023-08-16T07:21:43.084Z,6.40
2023-08-16T07:26:37.520Z,6.43
2023-08-16T07:31:33.959Z,6.75
2023-08-16T07:36:31.033Z,6.25
2023-08-16T07:41:25.951Z,7.18
2023-08-16T07:46:20.005Z,7.18
2023-08-16T07:51:13.902Z,7.30
2023-08-16T07:56:08.756Z,7.47
2023-08-16T08:01:03.062Z,7.35
2023-08-16T08:06:06.272Z,8.25
2023-08-16T08:11:00.821Z,8.10
2023-08-16T08:15:54.572Z,6.70
2023-08-16T08:20:48.667Z,7.72
2023-08-16T08:25:44.720Z,6.65
2023-08-16T08:30:38.986Z,6.93
2023-08-16T08:35:54.276Z,7.03
2023-08-16T08:40:48.675Z,7.18
2023-08-16T08:45:43.856Z,7.30
2023-08-16T08:50:39.862Z,6.57
2023-08-16T08:55:35.086Z,6.82
2023-08-16T09:00:29.110Z,7.93
2023-08-16T09:05:24.006Z,6.82
2023-08-16T09:10:18.404Z,6.55
2023-08-16T09:15:12.741Z,7.00
2023-08-16T09:20:09.108Z,7.53
2023-08-16T09:25:05.342Z,6.82
2023-08-16T09:30:00.365Z,7.28
2023-08-16T09:34:56.753Z,7.78
2023-08-16T09:40:21.348Z,7.07
2023-08-16T09:45:15.500Z,6.25
2023-08-16T09:50:11.321Z,6.93
2023-08-16T09:55:09.674Z,6.40
2023-08-16T10:00:08.504Z,5.65
2023-08-16T10:05:09.455Z,6.10
2023-08-16T10:10:04.333Z,5.50
2023-08-16T10:14:58.587Z,6.22
2023-08-16T10:20:01.931Z,5.13
2023-08-16T10:24:57.677Z,5.65
2023-08-16T10:29:55.041Z,5.90
2023-08-16T10:34:50.928Z,6.45
2023-08-16T10:44:52.876Z,6.45
2023-08-16T10:49:47.381Z,6.43
2023-08-16T10:54:42.097Z,6.88
2023-08-16T10:59:43.427Z,6.00
2023-08-16T11:04:42.081Z,6.35
2023-08-16T11:09:35.632Z,6.90
2023-08-16T11:14:30.563Z,6.47
2023-08-16T11:19:24.831Z,6.97
2023-08-16T11:24:19.367Z,7.07
2023-08-16T11:29:13.785Z,7.13
2023-08-16T11:34:11.840Z,7.82
2023-08-16T11:39:06.405Z,7.18
2023-08-16T11:44:03.234Z,7.50
2023-08-16T11:48:57.188Z,7.85
2023-08-16T11:53:51.683Z,7.80
2023-08-16T11:59:08.996Z,8.45
2023-08-16T12:04:09.950Z,8.55
2023-08-16T12:09:05.200Z,8.07
2023-08-16T12:13:59.273Z,8.15
2023-08-16T12:18:53.748Z,8.05
2023-08-16T12:23:47.983Z,7.72
2023-08-16T12:28:41.418Z,8.10
2023-08-16T12:33:35.733Z,7.78
2023-08-16T12:38:30.148Z,7.60
2023-08-16T12:43:24.212Z,8.63
2023-08-16T12:48:17.845Z,7.93
2023-08-16T12:58:21.517Z,8.10
2023-08-16T13:03:29.548Z,7.07
2023-08-16T13:08:28.220Z,7.65
2023-08-16T13:13:31.764Z,7.57
2023-08-16T13:28:45.507Z,7.00
2023-08-16T13:38:37.026Z,7.15
2023-08-16T13:43:43.735Z,7.47
2023-08-16T13:48:40.863Z,7.25
2023-08-16T13:53:35.854Z,7.75
2023-08-16T13:58:35.808Z,7.32
2023-08-16T14:03:29.665Z,6.60
2023-08-16T14:08:25.336Z,7.13
2023-08-16T14:13:19.559Z,7.10
2023-08-16T14:18:14.772Z,6.30
2023-08-16T14:23:09.318Z,6.45
2023-08-16T14:28:03.281Z,6.88
2023-08-16T14:32:57.801Z,6.85
2023-08-16T14:37:51.323Z,6.75
2023-08-16T14:42:46.551Z,6.85
2023-08-16T14:47:40.487Z,6.55
2023-08-16T14:52:34.045Z,6.47
2023-08-16T14:57:28.435Z,6.90
2023-08-16T15:02:23.041Z,6.43
2023-08-16T15:07:17.192Z,6.55
2023-08-16T15:12:11.230Z,6.40
2023-08-16T15:17:05.956Z,7.00
2023-08-16T15:21:59.997Z,6.60
2023-08-16T15:26:55.408Z,6.25
2023-08-16T15:31:49.974Z,6.45
2023-08-16T15:36:45.367Z,6.20
2023-08-16T15:41:39.639Z,6.60
2023-08-16T15:46:32.945Z,6.57
2023-08-16T15:51:28.972Z,7.25
2023-08-16T15:56:24.297Z,7.10
2023-08-16T16:01:18.520Z,7.53
2023-08-16T16:06:12.770Z,6.95
2023-08-16T16:11:07.478Z,7.30
2023-08-16T16:16:01.583Z,7.95
2023-08-16T16:20:54.996Z,7.05
2023-08-16T16:25:48.376Z,7.07
2023-08-16T16:30:42.828Z,6.95
2023-08-16T16:35:37.337Z,6.03
2023-08-16T16:40:31.471Z,6.70
2023-08-16T16:45:25.137Z,6.85
2023-08-16T16:50:19.202Z,7.03
2023-08-16T16:55:13.238Z,6.07
2023-08-16T17:00:12.209Z,6.22
2023-08-16T17:05:07.696Z,5.95
2023-08-16T17:10:03.311Z,5.78
2023-08-16T17:15:00.656Z,5.72
2023-08-16T17:19:55.537Z,6.25
2023-08-16T17:24:51.445Z,5.90
2023-08-16T17:29:45.865Z,5.82
2023-08-16T17:34:40.375Z,6.35
2023-08-16T17:39:34.640Z,6.32
2023-08-16T17:44:28.764Z,6.68
2023-08-16T17:49:24.424Z,6.82
2023-08-16T17:54:18.598Z,9.45
2023-08-16T17:59:13.905Z,7.30
2023-08-16T18:04:09.077Z,6.63
2023-08-16T18:09:03.333Z,6.55
2023-08-16T18:13:57.489Z,7.05
2023-08-16T18:18:50.825Z,5.70
2023-08-16T18:23:45.414Z,6.20
2023-08-16T18:28:41.244Z,6.65
2023-08-16T18:33:35.313Z,6.70
2023-08-16T18:38:29.793Z,6.30
2023-08-16T18:43:24.164Z,6.75
2023-08-16T18:48:17.708Z,6.00
2023-08-16T18:53:12.055Z,6.68
2023-08-16T18:58:06.263Z,6.57
2023-08-16T19:03:00.334Z,6.60
2023-08-16T19:07:54.193Z,6.03
2023-08-16T19:12:48.222Z,6.32
2023-08-16T19:17:42.620Z,6.32
2023-08-16T19:22:37.192Z,7.20
2023-08-16T19:27:31.449Z,7.30
2023-08-16T19:32:25.382Z,6.80
2023-08-16T19:37:20.209Z,7.05
2023-08-16T19:42:14.198Z,6.80
2023-08-16T19:47:08.465Z,7.25
2023-08-16T19:52:02.885Z,6.55
2023-08-16T19:56:57.126Z,7.05
2023-08-16T20:01:52.471Z,6.80
2023-08-16T20:06:47.319Z,7.03
2023-08-16T20:11:41.662Z,7.53
2023-08-16T20:16:37.975Z,6.90
2023-08-16T20:21:31.581Z,7.45
2023-08-16T20:26:25.947Z,10.13
2023-08-16T20:31:21.847Z,7.72
2023-08-16T20:36:16.216Z,7.53
2023-08-16T20:41:11.155Z,7.20
2023-08-16T20:46:06.671Z,6.85
2023-08-16T20:51:00.509Z,7.45
2023-08-16T20:55:54.926Z,7.25
2023-08-16T21:00:49.713Z,7.50
2023-08-16T21:05:43.491Z,7.05
2023-08-16T21:10:37.573Z,7.63
2023-08-16T21:15:32.115Z,7.30
2023-08-16T21:20:26.465Z,8.02
2023-08-16T21:25:19.900Z,7.40
2023-08-16T21:30:14.193Z,7.47
2023-08-16T21:35:10.174Z,7.70
2023-08-16T21:40:04.422Z,7.93
2023-08-16T21:44:58.965Z,7.82
2023-08-16T21:49:53.463Z,7.82
2023-08-16T21:54:47.117Z,8.43
2023-08-16T21:59:40.725Z,7.57
2023-08-16T22:04:34.752Z,7.65
2023-08-16T22:09:28.692Z,7.97
2023-08-16T22:14:23.152Z,8.43
2023-08-16T22:19:19.995Z,9.40
2023-08-16T22:24:14.274Z,9.02
2023-08-16T22:29:08.334Z,9.80
2023-08-16T22:34:02.415Z,9.23
2023-08-16T22:38:56.612Z,8.75
2023-08-16T22:43:50.888Z,9.85
2023-08-16T22:48:45.393Z,9.23
2023-08-16T22:53:38.677Z,9.70
2023-08-16T22:58:32.598Z,10.75
2023-08-16T23:03:26.664Z,10.43
2023-08-16T23:08:20.540Z,10.20
2023-08-16T23:13:15.412Z,9.52
2023-08-16T23:18:09.710Z,10.93
2023-08-16T23:23:04.744Z,10.82
2023-08-16T23:27:58.645Z,10.65
2023-08-16T23:32:52.384Z,11.13
2023-08-16T23:37:46.930Z,10.70
2023-08-16T23:42:41.572Z,10.68
2023-08-16T23:47:35.813Z,10.77
2023-08-16T23:52:30.328Z,10.25
2023-08-16T23:57:25.207Z,10.23
